sensor_id;sensor_type;location;lat;lon;timestamp;temperature;humidity
43673;DHT22;41723;49.326;8.430;2023-04-24T00:00:54;12.20;99.90
43673;DHT22;41723;49.326;8.430;2023-04-24T00:03:24;12.20;99.90
43673;DHT22;41723;49.326;8.430;2023-04-24T00:05:51;12.20;99.90
43673;DHT22;41723;49.326;8.430;2023-04-24T00:08:17;12.20;99.90
43673;DHT22;41723;49.326;8.430;2023-04-24T00:10:43;12.20;99.90
43673;DHT22;41723;49.326;8.430;2023-04-24T00:13:09;12.10;99.90
43673;DHT22;41723;49.326;8.430;2023-04-24T00:15:34;12.10;99.90
43673;DHT22;41723;49.326;8.430;2023-04-24T00:18:00;12.20;99.90
43673;DHT22;41723;49.326;8.430;2023-04-24T00:20:27;12.20;99.90
43673;DHT22;41723;49.326;8.430;2023-04-24T00:22:53;12.20;99.90
43673;DHT22;41723;49.326;8.430;2023-04-24T00:25:19;12.20;99.90
43673;DHT22;41723;49.326;8.430;2023-04-24T00:27:44;12.20;99.90
43673;DHT22;41723;49.326;8.430;2023-04-24T00:30:10;12.20;99.90
43673;DHT22;41723;49.326;8.430;2023-04-24T00:32:36;12.20;99.90
43673;DHT22;41723;49.326;8.430;2023-04-24T00:35:01;12.30;99.90
43673;DHT22;41723;49.326;8.430;2023-04-24T00:37:27;12.20;99.90
43673;DHT22;41723;49.326;8.430;2023-04-24T00:39:53;12.20;99.90
43673;DHT22;41723;49.326;8.430;2023-04-24T00:42:18;12.30;99.90
43673;DHT22;41723;49.326;8.430;2023-04-24T00:44:44;12.20;99.90
43673;DHT22;41723;49.326;8.430;2023-04-24T00:47:10;12.20;99.90
43673;DHT22;41723;49.326;8.430;2023-04-24T00:49:36;12.10;99.90
43673;DHT22;41723;49.326;8.430;2023-04-24T00:52:02;12.30;99.90
43673;DHT22;41723;49.326;8.430;2023-04-24T00:54:27;12.20;99.90
43673;DHT22;41723;49.326;8.430;2023-04-24T00:56:53;12.20;99.90
43673;DHT22;41723;49.326;8.430;2023-04-24T00:59:19;12.10;99.90
43673;DHT22;41723;49.326;8.430;2023-04-24T01:01:44;12.10;99.90
43673;DHT22;41723;49.326;8.430;2023-04-24T01:04:11;12.10;99.90
43673;DHT22;41723;49.326;8.430;2023-04-24T01:06:38;12.20;99.90
43673;DHT22;41723;49.326;8.430;2023-04-24T01:09:04;12.20;99.90
43673;DHT22;41723;49.326;8.430;2023-04-24T01:11:30;12.20;99.90
43673;DHT22;41723;49.326;8.430;2023-04-24T01:13:56;12.20;99.90
43673;DHT22;41723;49.326;8.430;2023-04-24T01:16:23;12.20;99.90
43673;DHT22;41723;49.326;8.430;2023-04-24T01:18:48;12.20;99.90
43673;DHT22;41723;49.326;8.430;2023-04-24T01:21:15;12.30;99.90
43673;DHT22;41723;49.326;8.430;2023-04-24T01:23:44;12.30;99.90
43673;DHT22;41723;49.326;8.430;2023-04-24T01:26:10;12.30;99.90
43673;DHT22;41723;49.326;8.430;2023-04-24T01:28:36;12.10;99.90
43673;DHT22;41723;49.326;8.430;2023-04-24T01:31:04;12.10;99.90
43673;DHT22;41723;49.326;8.430;2023-04-24T01:33:30;12.00;99.90
43673;DHT22;41723;49.326;8.430;2023-04-24T01:35:56;12.00;99.90
43673;DHT22;41723;49.326;8.430;2023-04-24T01:38:21;12.10;99.90
43673;DHT22;41723;49.326;8.430;2023-04-24T01:40:47;12.10;99.90
43673;DHT22;41723;49.326;8.430;2023-04-24T01:43:13;12.10;99.90
43673;DHT22;41723;49.326;8.430;2023-04-24T01:45:38;12.10;99.90
43673;DHT22;41723;49.326;8.430;2023-04-24T01:48:04;12.10;99.90
43673;DHT22;41723;49.326;8.430;2023-04-24T01:50:30;12.00;99.90
43673;DHT22;41723;49.326;8.430;2023-04-24T01:52:56;12.00;99.90
43673;DHT22;41723;49.326;8.430;2023-04-24T01:55:21;12.00;99.90
43673;DHT22;41723;49.326;8.430;2023-04-24T01:57:47;12.10;99.90
43673;DHT22;41723;49.326;8.430;2023-04-24T02:00:13;12.10;99.90
43673;DHT22;41723;49.326;8.430;2023-04-24T02:02:39;12.10;99.90
43673;DHT22;41723;49.326;8.430;2023-04-24T02:05:08;12.10;99.90
43673;DHT22;41723;49.326;8.430;2023-04-24T02:07:35;12.10;99.90
43673;DHT22;41723;49.326;8.430;2023-04-24T02:10:01;12.10;99.90
43673;DHT22;41723;49.326;8.430;2023-04-24T02:12:27;12.20;99.90
43673;DHT22;41723;49.326;8.430;2023-04-24T02:14:52;12.10;99.90
43673;DHT22;41723;49.326;8.430;2023-04-24T02:17:18;12.10;99.90
43673;DHT22;41723;49.326;8.430;2023-04-24T02:19:44;12.10;99.90
43673;DHT22;41723;49.326;8.430;2023-04-24T02:22:10;12.00;99.90
43673;DHT22;41723;49.326;8.430;2023-04-24T02:28:11;12.00;99.90
43673;DHT22;41723;49.326;8.430;2023-04-24T02:30:37;12.00;99.90
43673;DHT22;41723;49.326;8.430;2023-04-24T02:33:03;11.90;99.90
43673;DHT22;41723;49.326;8.430;2023-04-24T02:35:29;11.90;99.90
43673;DHT22;41723;49.326;8.430;2023-04-24T02:37:55;11.90;99.90
43673;DHT22;41723;49.326;8.430;2023-04-24T02:40:20;11.90;99.90
43673;DHT22;41723;49.326;8.430;2023-04-24T02:42:46;12.00;99.90
43673;DHT22;41723;49.326;8.430;2023-04-24T02:45:12;12.00;99.90
43673;DHT22;41723;49.326;8.430;2023-04-24T02:47:38;12.00;99.90
43673;DHT22;41723;49.326;8.430;2023-04-24T02:50:03;12.00;99.90
43673;DHT22;41723;49.326;8.430;2023-04-24T02:52:29;12.10;99.90
43673;DHT22;41723;49.326;8.430;2023-04-24T02:54:55;12.10;99.90
43673;DHT22;41723;49.326;8.430;2023-04-24T02:57:20;12.10;99.90
43673;DHT22;41723;49.326;8.430;2023-04-24T02:59:46;12.00;99.90
43673;DHT22;41723;49.326;8.430;2023-04-24T03:02:12;11.90;99.90
43673;DHT22;41723;49.326;8.430;2023-04-24T03:04:37;11.90;99.90
43673;DHT22;41723;49.326;8.430;2023-04-24T03:07:03;11.80;99.90
43673;DHT22;41723;49.326;8.430;2023-04-24T03:13:05;11.70;99.90
43673;DHT22;41723;49.326;8.430;2023-04-24T03:15:33;11.70;99.90
43673;DHT22;41723;49.326;8.430;2023-04-24T03:17:59;11.80;99.90
43673;DHT22;41723;49.326;8.430;2023-04-24T03:20:26;11.90;99.90
43673;DHT22;41723;49.326;8.430;2023-04-24T03:22:53;11.80;99.90
43673;DHT22;41723;49.326;8.430;2023-04-24T03:25:18;11.80;99.90
43673;DHT22;41723;49.326;8.430;2023-04-24T03:27:44;11.90;99.90
43673;DHT22;41723;49.326;8.430;2023-04-24T03:30:32;12.00;99.90
43673;DHT22;41723;49.326;8.430;2023-04-24T03:32:59;12.00;99.90
43673;DHT22;41723;49.326;8.430;2023-04-24T03:35:28;12.00;99.90
43673;DHT22;41723;49.326;8.430;2023-04-24T03:41:32;11.70;99.90
43673;DHT22;41723;49.326;8.430;2023-04-24T03:44:03;11.70;99.90
43673;DHT22;41723;49.326;8.430;2023-04-24T03:46:29;11.60;99.90
43673;DHT22;41723;49.326;8.430;2023-04-24T03:48:58;11.60;99.90
43673;DHT22;41723;49.326;8.430;2023-04-24T03:51:28;11.50;99.90
43673;DHT22;41723;49.326;8.430;2023-04-24T03:54:01;11.40;99.90
43673;DHT22;41723;49.326;8.430;2023-04-24T03:56:29;11.40;99.90
43673;DHT22;41723;49.326;8.430;2023-04-24T03:58:55;11.40;99.90
43673;DHT22;41723;49.326;8.430;2023-04-24T04:01:20;11.30;99.90
43673;DHT22;41723;49.326;8.430;2023-04-24T04:03:53;11.30;99.90
43673;DHT22;41723;49.326;8.430;2023-04-24T04:06:22;11.30;99.90
43673;DHT22;41723;49.326;8.430;2023-04-24T04:08:48;11.10;99.90
43673;DHT22;41723;49.326;8.430;2023-04-24T04:14:50;11.10;99.90
43673;DHT22;41723;49.326;8.430;2023-04-24T04:17:15;11.00;99.90
43673;DHT22;41723;49.326;8.430;2023-04-24T04:19:41;11.10;99.90
43673;DHT22;41723;49.326;8.430;2023-04-24T04:22:07;11.10;99.90
43673;DHT22;41723;49.326;8.430;2023-04-24T04:24:39;11.10;99.90
43673;DHT22;41723;49.326;8.430;2023-04-24T04:27:06;11.00;99.90
43673;DHT22;41723;49.326;8.430;2023-04-24T04:29:38;11.10;99.90
43673;DHT22;41723;49.326;8.430;2023-04-24T04:32:07;11.20;99.90
43673;DHT22;41723;49.326;8.430;2023-04-24T04:34:33;11.20;99.90
43673;DHT22;41723;49.326;8.430;2023-04-24T04:36:59;11.20;99.90
43673;DHT22;41723;49.326;8.430;2023-04-24T04:39:50;11.20;99.90
43673;DHT22;41723;49.326;8.430;2023-04-24T04:42:19;11.10;99.90
43673;DHT22;41723;49.326;8.430;2023-04-24T04:44:45;10.90;99.90
43673;DHT22;41723;49.326;8.430;2023-04-24T04:47:18;10.90;99.90
43673;DHT22;41723;49.326;8.430;2023-04-24T04:49:45;10.80;99.90
43673;DHT22;41723;49.326;8.430;2023-04-24T04:52:20;10.60;99.90
43673;DHT22;41723;49.326;8.430;2023-04-24T04:54:52;10.60;99.90
43673;DHT22;41723;49.326;8.430;2023-04-24T04:57:23;10.60;99.90
43673;DHT22;41723;49.326;8.430;2023-04-24T04:59:48;10.60;99.90
43673;DHT22;41723;49.326;8.430;2023-04-24T05:02:24;10.60;99.90
43673;DHT22;41723;49.326;8.430;2023-04-24T05:04:49;10.60;99.90
43673;DHT22;41723;49.326;8.430;2023-04-24T05:07:15;10.60;99.90
43673;DHT22;41723;49.326;8.430;2023-04-24T05:09:46;10.60;99.90
43673;DHT22;41723;49.326;8.430;2023-04-24T05:12:12;10.60;99.90
43673;DHT22;41723;49.326;8.430;2023-04-24T05:14:45;10.50;99.90
43673;DHT22;41723;49.326;8.430;2023-04-24T05:17:11;10.60;99.90
43673;DHT22;41723;49.326;8.430;2023-04-24T05:19:37;10.70;99.90
43673;DHT22;41723;49.326;8.430;2023-04-24T05:22:04;10.70;99.90
43673;DHT22;41723;49.326;8.430;2023-04-24T05:24:33;10.70;99.90
43673;DHT22;41723;49.326;8.430;2023-04-24T05:27:09;10.80;99.90
43673;DHT22;41723;49.326;8.430;2023-04-24T05:29:38;10.80;99.90
43673;DHT22;41723;49.326;8.430;2023-04-24T05:32:05;11.00;99.90
43673;DHT22;41723;49.326;8.430;2023-04-24T05:34:31;11.00;99.90
43673;DHT22;41723;49.326;8.430;2023-04-24T05:36:57;11.00;99.90
43673;DHT22;41723;49.326;8.430;2023-04-24T05:39:23;11.00;99.90
43673;DHT22;41723;49.326;8.430;2023-04-24T05:41:51;11.10;99.90
43673;DHT22;41723;49.326;8.430;2023-04-24T05:44:16;11.20;99.90
43673;DHT22;41723;49.326;8.430;2023-04-24T05:46:42;11.20;99.90
43673;DHT22;41723;49.326;8.430;2023-04-24T05:49:09;11.30;99.90
43673;DHT22;41723;49.326;8.430;2023-04-24T05:51:35;11.40;99.90
43673;DHT22;41723;49.326;8.430;2023-04-24T05:54:01;11.40;99.90
43673;DHT22;41723;49.326;8.430;2023-04-24T05:56:28;11.40;99.90
43673;DHT22;41723;49.326;8.430;2023-04-24T05:58:54;11.50;99.90
43673;DHT22;41723;49.326;8.430;2023-04-24T06:01:20;11.50;99.90
43673;DHT22;41723;49.326;8.430;2023-04-24T06:03:53;11.40;99.90
43673;DHT22;41723;49.326;8.430;2023-04-24T06:06:19;11.50;99.90
43673;DHT22;41723;49.326;8.430;2023-04-24T06:08:45;11.40;99.90
43673;DHT22;41723;49.326;8.430;2023-04-24T06:11:11;11.40;99.90
43673;DHT22;41723;49.326;8.430;2023-04-24T06:13:38;11.60;99.90
43673;DHT22;41723;49.326;8.430;2023-04-24T06:16:29;11.60;99.90
43673;DHT22;41723;49.326;8.430;2023-04-24T06:19:01;11.70;99.90
43673;DHT22;41723;49.326;8.430;2023-04-24T06:21:26;11.60;99.90
43673;DHT22;41723;49.326;8.430;2023-04-24T06:23:53;11.60;99.90
43673;DHT22;41723;49.326;8.430;2023-04-24T06:26:19;11.70;99.90
43673;DHT22;41723;49.326;8.430;2023-04-24T06:28:45;11.50;99.90
43673;DHT22;41723;49.326;8.430;2023-04-24T06:31:10;11.40;99.90
43673;DHT22;41723;49.326;8.430;2023-04-24T06:33:36;11.40;99.90
43673;DHT22;41723;49.326;8.430;2023-04-24T06:36:01;11.50;99.90
43673;DHT22;41723;49.326;8.430;2023-04-24T06:38:29;11.50;99.90
43673;DHT22;41723;49.326;8.430;2023-04-24T06:40:55;11.40;99.90
43673;DHT22;41723;49.326;8.430;2023-04-24T06:43:20;11.40;99.90
43673;DHT22;41723;49.326;8.430;2023-04-24T06:45:46;11.40;99.90
43673;DHT22;41723;49.326;8.430;2023-04-24T06:48:12;11.40;99.90
43673;DHT22;41723;49.326;8.430;2023-04-24T06:50:38;11.40;99.90
43673;DHT22;41723;49.326;8.430;2023-04-24T06:53:03;11.30;99.90
43673;DHT22;41723;49.326;8.430;2023-04-24T06:55:29;11.30;99.90
43673;DHT22;41723;49.326;8.430;2023-04-24T06:57:54;11.40;99.90
43673;DHT22;41723;49.326;8.430;2023-04-24T07:00:38;11.50;99.90
43673;DHT22;41723;49.326;8.430;2023-04-24T07:03:04;11.10;99.90
43673;DHT22;41723;49.326;8.430;2023-04-24T07:05:32;10.90;99.90
43673;DHT22;41723;49.326;8.430;2023-04-24T07:08:00;10.80;99.90
43673;DHT22;41723;49.326;8.430;2023-04-24T07:10:26;10.80;99.90
43673;DHT22;41723;49.326;8.430;2023-04-24T07:12:54;10.80;99.90
43673;DHT22;41723;49.326;8.430;2023-04-24T07:15:21;10.70;99.90
43673;DHT22;41723;49.326;8.430;2023-04-24T07:17:46;10.80;99.90
43673;DHT22;41723;49.326;8.430;2023-04-24T07:20:12;10.80;99.90
43673;DHT22;41723;49.326;8.430;2023-04-24T07:22:39;10.80;99.90
43673;DHT22;41723;49.326;8.430;2023-04-24T07:25:06;10.80;99.90
43673;DHT22;41723;49.326;8.430;2023-04-24T07:27:32;10.80;99.90
43673;DHT22;41723;49.326;8.430;2023-04-24T07:29:57;10.90;99.90
43673;DHT22;41723;49.326;8.430;2023-04-24T07:32:23;10.80;99.90
43673;DHT22;41723;49.326;8.430;2023-04-24T07:37:54;10.80;99.90
43673;DHT22;41723;49.326;8.430;2023-04-24T07:40:21;10.90;99.90
43673;DHT22;41723;49.326;8.430;2023-04-24T07:42:46;11.00;99.90
43673;DHT22;41723;49.326;8.430;2023-04-24T07:45:14;11.00;99.90
43673;DHT22;41723;49.326;8.430;2023-04-24T07:47:40;11.10;99.90
43673;DHT22;41723;49.326;8.430;2023-04-24T07:50:08;11.20;99.90
43673;DHT22;41723;49.326;8.430;2023-04-24T07:52:34;11.30;99.90
43673;DHT22;41723;49.326;8.430;2023-04-24T07:54:59;11.40;99.90
43673;DHT22;41723;49.326;8.430;2023-04-24T07:57:25;11.50;99.90
43673;DHT22;41723;49.326;8.430;2023-04-24T07:59:51;11.60;99.90
43673;DHT22;41723;49.326;8.430;2023-04-24T08:02:17;11.80;99.90
43673;DHT22;41723;49.326;8.430;2023-04-24T08:04:42;11.90;99.90
43673;DHT22;41723;49.326;8.430;2023-04-24T08:07:08;11.90;99.90
43673;DHT22;41723;49.326;8.430;2023-04-24T08:09:33;12.00;99.90
43673;DHT22;41723;49.326;8.430;2023-04-24T08:11:59;12.00;99.90
43673;DHT22;41723;49.326;8.430;2023-04-24T08:14:25;11.90;99.90
43673;DHT22;41723;49.326;8.430;2023-04-24T08:16:52;11.90;99.90
43673;DHT22;41723;49.326;8.430;2023-04-24T08:19:17;11.90;99.90
43673;DHT22;41723;49.326;8.430;2023-04-24T08:21:43;11.90;99.90
43673;DHT22;41723;49.326;8.430;2023-04-24T08:24:08;11.80;99.90
43673;DHT22;41723;49.326;8.430;2023-04-24T08:26:34;11.70;99.90
43673;DHT22;41723;49.326;8.430;2023-04-24T08:28:59;11.40;99.90
43673;DHT22;41723;49.326;8.430;2023-04-24T08:31:25;11.30;99.90
43673;DHT22;41723;49.326;8.430;2023-04-24T08:33:51;11.50;99.90
43673;DHT22;41723;49.326;8.430;2023-04-24T08:36:19;11.40;99.90
43673;DHT22;41723;49.326;8.430;2023-04-24T08:38:44;11.50;99.90
43673;DHT22;41723;49.326;8.430;2023-04-24T08:41:12;11.60;99.90
43673;DHT22;41723;49.326;8.430;2023-04-24T08:43:39;11.70;99.90
43673;DHT22;41723;49.326;8.430;2023-04-24T08:46:05;11.70;99.90
43673;DHT22;41723;49.326;8.430;2023-04-24T08:48:31;11.70;99.90
43673;DHT22;41723;49.326;8.430;2023-04-24T08:50:57;11.80;99.90
43673;DHT22;41723;49.326;8.430;2023-04-24T08:53:23;12.10;99.90
43673;DHT22;41723;49.326;8.430;2023-04-24T08:55:49;12.10;99.90
43673;DHT22;41723;49.326;8.430;2023-04-24T08:58:17;12.00;99.90
43673;DHT22;41723;49.326;8.430;2023-04-24T09:00:43;11.90;99.90
43673;DHT22;41723;49.326;8.430;2023-04-24T09:03:15;11.80;99.90
43673;DHT22;41723;49.326;8.430;2023-04-24T09:05:42;11.90;99.90
43673;DHT22;41723;49.326;8.430;2023-04-24T09:08:11;12.00;99.90
43673;DHT22;41723;49.326;8.430;2023-04-24T09:10:39;11.80;99.90
43673;DHT22;41723;49.326;8.430;2023-04-24T09:13:04;11.90;99.90
43673;DHT22;41723;49.326;8.430;2023-04-24T09:15:31;11.90;99.90
43673;DHT22;41723;49.326;8.430;2023-04-24T09:17:56;12.00;99.90
43673;DHT22;41723;49.326;8.430;2023-04-24T09:20:22;12.00;99.90
43673;DHT22;41723;49.326;8.430;2023-04-24T09:22:48;12.00;99.90
43673;DHT22;41723;49.326;8.430;2023-04-24T09:25:13;11.90;99.90
43673;DHT22;41723;49.326;8.430;2023-04-24T09:27:42;12.10;99.90
43673;DHT22;41723;49.326;8.430;2023-04-24T09:30:09;12.10;99.90
43673;DHT22;41723;49.326;8.430;2023-04-24T09:32:35;12.00;99.90
43673;DHT22;41723;49.326;8.430;2023-04-24T09:35:14;12.10;99.90
43673;DHT22;41723;49.326;8.430;2023-04-24T09:37:46;12.20;99.90
43673;DHT22;41723;49.326;8.430;2023-04-24T09:40:19;12.20;99.90
43673;DHT22;41723;49.326;8.430;2023-04-24T09:42:51;12.00;99.90
43673;DHT22;41723;49.326;8.430;2023-04-24T09:45:17;12.20;99.90
43673;DHT22;41723;49.326;8.430;2023-04-24T09:47:43;12.60;99.90
43673;DHT22;41723;49.326;8.430;2023-04-24T09:50:15;12.60;98.90
43673;DHT22;41723;49.326;8.430;2023-04-24T09:52:46;12.40;99.20
43673;DHT22;41723;49.326;8.430;2023-04-24T09:55:13;12.30;98.80
43673;DHT22;41723;49.326;8.430;2023-04-24T09:57:51;12.40;99.20
43673;DHT22;41723;49.326;8.430;2023-04-24T10:00:28;12.60;98.60
43673;DHT22;41723;49.326;8.430;2023-04-24T10:02:57;12.50;99.00
43673;DHT22;41723;49.326;8.430;2023-04-24T10:05:33;12.50;99.80
43673;DHT22;41723;49.326;8.430;2023-04-24T10:08:06;12.50;99.60
43673;DHT22;41723;49.326;8.430;2023-04-24T10:10:32;12.40;99.90
43673;DHT22;41723;49.326;8.430;2023-04-24T10:12:58;12.10;99.90
43673;DHT22;41723;49.326;8.430;2023-04-24T10:15:24;12.10;99.90
43673;DHT22;41723;49.326;8.430;2023-04-24T10:17:51;12.00;99.90
43673;DHT22;41723;49.326;8.430;2023-04-24T10:20:23;12.10;99.90
43673;DHT22;41723;49.326;8.430;2023-04-24T10:22:50;12.20;99.90
43673;DHT22;41723;49.326;8.430;2023-04-24T10:25:17;12.00;99.90
43673;DHT22;41723;49.326;8.430;2023-04-24T10:27:43;12.10;99.90
43673;DHT22;41723;49.326;8.430;2023-04-24T10:30:11;12.00;99.90
43673;DHT22;41723;49.326;8.430;2023-04-24T10:32:37;11.90;99.90
43673;DHT22;41723;49.326;8.430;2023-04-24T10:35:03;11.90;99.90
43673;DHT22;41723;49.326;8.430;2023-04-24T10:37:28;11.90;99.90
43673;DHT22;41723;49.326;8.430;2023-04-24T10:40:00;11.90;99.90
43673;DHT22;41723;49.326;8.430;2023-04-24T10:42:27;12.10;99.90
43673;DHT22;41723;49.326;8.430;2023-04-24T10:44:52;12.20;99.90
43673;DHT22;41723;49.326;8.430;2023-04-24T10:47:19;12.10;99.90
43673;DHT22;41723;49.326;8.430;2023-04-24T10:49:45;12.30;99.90
43673;DHT22;41723;49.326;8.430;2023-04-24T10:52:10;12.40;99.90
43673;DHT22;41723;49.326;8.430;2023-04-24T11:02:40;13.10;99.90
43673;DHT22;41723;49.326;8.430;2023-04-24T11:05:14;13.30;99.90
43673;DHT22;41723;49.326;8.430;2023-04-24T11:10:27;13.60;99.90
43673;DHT22;41723;49.326;8.430;2023-04-24T11:12:53;13.60;99.90
43673;DHT22;41723;49.326;8.430;2023-04-24T11:15:18;13.60;99.90
43673;DHT22;41723;49.326;8.430;2023-04-24T11:17:45;13.80;99.90
43673;DHT22;41723;49.326;8.430;2023-04-24T11:20:11;13.80;99.10
43673;DHT22;41723;49.326;8.430;2023-04-24T11:22:38;14.30;99.10
43673;DHT22;41723;49.326;8.430;2023-04-24T11:25:05;14.30;99.30
43673;DHT22;41723;49.326;8.430;2023-04-24T11:27:38;14.10;98.50
43673;DHT22;41723;49.326;8.430;2023-04-24T11:30:04;14.30;98.50
43673;DHT22;41723;49.326;8.430;2023-04-24T11:34:59;13.50;98.60
43673;DHT22;41723;49.326;8.430;2023-04-24T11:37:27;13.60;98.80
43673;DHT22;41723;49.326;8.430;2023-04-24T11:39:54;13.80;99.30
43673;DHT22;41723;49.326;8.430;2023-04-24T11:42:20;13.60;98.50
43673;DHT22;41723;49.326;8.430;2023-04-24T11:44:46;13.40;98.30
43673;DHT22;41723;49.326;8.430;2023-04-24T11:47:12;13.30;98.60
43673;DHT22;41723;49.326;8.430;2023-04-24T11:49:38;13.00;98.40
43673;DHT22;41723;49.326;8.430;2023-04-24T11:52:04;12.90;98.70
43673;DHT22;41723;49.326;8.430;2023-04-24T11:54:30;13.00;99.20
43673;DHT22;41723;49.326;8.430;2023-04-24T11:56:56;13.20;99.50
43673;DHT22;41723;49.326;8.430;2023-04-24T11:59:23;13.30;99.00
43673;DHT22;41723;49.326;8.430;2023-04-24T12:01:49;13.20;98.60
43673;DHT22;41723;49.326;8.430;2023-04-24T12:04:16;13.30;98.60
43673;DHT22;41723;49.326;8.430;2023-04-24T12:07:24;13.30;98.40
43673;DHT22;41723;49.326;8.430;2023-04-24T12:09:40;13.20;98.20
43673;DHT22;41723;49.326;8.430;2023-04-24T12:12:07;13.30;98.00
43673;DHT22;41723;49.326;8.430;2023-04-24T12:14:32;13.20;97.90
43673;DHT22;41723;49.326;8.430;2023-04-24T12:16:58;13.40;97.90
43673;DHT22;41723;49.326;8.430;2023-04-24T12:19:23;13.40;97.60
43673;DHT22;41723;49.326;8.430;2023-04-24T12:21:59;13.30;97.40
43673;DHT22;41723;49.326;8.430;2023-04-24T12:24:24;13.20;97.40
43673;DHT22;41723;49.326;8.430;2023-04-24T12:26:50;13.20;97.90
43673;DHT22;41723;49.326;8.430;2023-04-24T12:29:19;13.30;97.30
43673;DHT22;41723;49.326;8.430;2023-04-24T12:31:45;13.50;96.70
43673;DHT22;41723;49.326;8.430;2023-04-24T12:34:20;13.80;96.40
43673;DHT22;41723;49.326;8.430;2023-04-24T12:36:46;14.10;96.60
43673;DHT22;41723;49.326;8.430;2023-04-24T12:39:16;14.10;96.80
43673;DHT22;41723;49.326;8.430;2023-04-24T12:41:58;13.80;96.40
43673;DHT22;41723;49.326;8.430;2023-04-24T12:44:31;13.80;97.40
43673;DHT22;41723;49.326;8.430;2023-04-24T12:46:57;13.90;96.80
43673;DHT22;41723;49.326;8.430;2023-04-24T12:49:23;14.10;96.60
43673;DHT22;41723;49.326;8.430;2023-04-24T12:51:48;14.20;96.40
43673;DHT22;41723;49.326;8.430;2023-04-24T12:54:14;14.50;96.20
43673;DHT22;41723;49.326;8.430;2023-04-24T12:56:40;14.20;96.00
43673;DHT22;41723;49.326;8.430;2023-04-24T12:59:05;14.30;96.20
43673;DHT22;41723;49.326;8.430;2023-04-24T13:01:31;14.30;96.20
43673;DHT22;41723;49.326;8.430;2023-04-24T13:03:56;14.10;95.60
43673;DHT22;41723;49.326;8.430;2023-04-24T13:06:22;14.10;96.20
43673;DHT22;41723;49.326;8.430;2023-04-24T13:08:47;14.10;95.70
43673;DHT22;41723;49.326;8.430;2023-04-24T13:11:13;13.90;95.70
43673;DHT22;41723;49.326;8.430;2023-04-24T13:13:39;13.80;95.70
43673;DHT22;41723;49.326;8.430;2023-04-24T13:16:05;13.80;96.10
43673;DHT22;41723;49.326;8.430;2023-04-24T13:18:31;13.80;95.90
43673;DHT22;41723;49.326;8.430;2023-04-24T13:20:56;14.20;95.70
43673;DHT22;41723;49.326;8.430;2023-04-24T13:23:22;14.60;96.30
43673;DHT22;41723;49.326;8.430;2023-04-24T13:25:48;14.50;95.40
43673;DHT22;41723;49.326;8.430;2023-04-24T13:28:13;14.60;95.10
43673;DHT22;41723;49.326;8.430;2023-04-24T13:30:39;14.60;94.90
43673;DHT22;41723;49.326;8.430;2023-04-24T13:33:05;14.50;95.00
43673;DHT22;41723;49.326;8.430;2023-04-24T13:35:30;14.50;95.30
43673;DHT22;41723;49.326;8.430;2023-04-24T13:37:57;14.40;95.30
43673;DHT22;41723;49.326;8.430;2023-04-24T13:40:22;14.20;95.20
43673;DHT22;41723;49.326;8.430;2023-04-24T13:42:48;14.20;95.40
43673;DHT22;41723;49.326;8.430;2023-04-24T13:45:14;14.30;95.10
43673;DHT22;41723;49.326;8.430;2023-04-24T13:47:39;14.50;95.40
43673;DHT22;41723;49.326;8.430;2023-04-24T13:50:09;14.50;95.00
43673;DHT22;41723;49.326;8.430;2023-04-24T13:52:35;14.50;95.10
43673;DHT22;41723;49.326;8.430;2023-04-24T13:55:00;14.50;95.20
43673;DHT22;41723;49.326;8.430;2023-04-24T13:57:26;14.40;94.80
43673;DHT22;41723;49.326;8.430;2023-04-24T13:59:53;14.00;95.20
43673;DHT22;41723;49.326;8.430;2023-04-24T14:02:20;14.00;95.80
43673;DHT22;41723;49.326;8.430;2023-04-24T14:04:46;14.10;95.80
43673;DHT22;41723;49.326;8.430;2023-04-24T14:07:13;14.30;95.60
43673;DHT22;41723;49.326;8.430;2023-04-24T14:09:39;14.30;95.30
43673;DHT22;41723;49.326;8.430;2023-04-24T14:12:04;14.40;96.00
43673;DHT22;41723;49.326;8.430;2023-04-24T14:14:31;14.20;95.40
43673;DHT22;41723;49.326;8.430;2023-04-24T14:16:56;14.20;95.40
43673;DHT22;41723;49.326;8.430;2023-04-24T14:19:22;14.10;95.50
43673;DHT22;41723;49.326;8.430;2023-04-24T14:21:47;14.10;95.80
43673;DHT22;41723;49.326;8.430;2023-04-24T14:24:13;14.00;95.70
43673;DHT22;41723;49.326;8.430;2023-04-24T14:26:39;13.90;96.00
43673;DHT22;41723;49.326;8.430;2023-04-24T14:29:04;13.70;96.20
43673;DHT22;41723;49.326;8.430;2023-04-24T14:31:30;13.60;96.10
43673;DHT22;41723;49.326;8.430;2023-04-24T14:33:56;13.60;96.60
43673;DHT22;41723;49.326;8.430;2023-04-24T14:36:22;13.60;96.10
43673;DHT22;41723;49.326;8.430;2023-04-24T14:38:48;13.50;96.30
43673;DHT22;41723;49.326;8.430;2023-04-24T14:41:14;13.50;97.70
43673;DHT22;41723;49.326;8.430;2023-04-24T14:43:40;13.30;98.10
43673;DHT22;41723;49.326;8.430;2023-04-24T14:46:05;13.20;99.10
43673;DHT22;41723;49.326;8.430;2023-04-24T14:48:31;13.10;99.90
43673;DHT22;41723;49.326;8.430;2023-04-24T14:50:57;13.20;99.90
43673;DHT22;41723;49.326;8.430;2023-04-24T14:53:25;13.20;99.90
43673;DHT22;41723;49.326;8.430;2023-04-24T14:55:53;13.20;99.90
43673;DHT22;41723;49.326;8.430;2023-04-24T14:58:18;13.30;99.90
43673;DHT22;41723;49.326;8.430;2023-04-24T15:00:44;13.30;99.90
43673;DHT22;41723;49.326;8.430;2023-04-24T15:03:10;13.20;99.90
43673;DHT22;41723;49.326;8.430;2023-04-24T15:05:36;13.20;99.90
43673;DHT22;41723;49.326;8.430;2023-04-24T15:08:02;13.30;99.90
43673;DHT22;41723;49.326;8.430;2023-04-24T15:10:27;13.30;99.90
43673;DHT22;41723;49.326;8.430;2023-04-24T15:12:54;13.30;99.90
43673;DHT22;41723;49.326;8.430;2023-04-24T15:15:20;13.30;99.90
43673;DHT22;41723;49.326;8.430;2023-04-24T15:17:45;13.40;99.90
43673;DHT22;41723;49.326;8.430;2023-04-24T15:20:11;13.30;99.90
43673;DHT22;41723;49.326;8.430;2023-04-24T15:22:37;13.10;99.90
43673;DHT22;41723;49.326;8.430;2023-04-24T15:25:02;13.00;99.60
43673;DHT22;41723;49.326;8.430;2023-04-24T15:27:38;12.90;99.20
43673;DHT22;41723;49.326;8.430;2023-04-24T15:30:04;12.90;98.90
43673;DHT22;41723;49.326;8.430;2023-04-24T15:32:30;12.90;99.30
43673;DHT22;41723;49.326;8.430;2023-04-24T15:34:55;12.90;99.10
43673;DHT22;41723;49.326;8.430;2023-04-24T15:37:21;12.90;99.30
43673;DHT22;41723;49.326;8.430;2023-04-24T15:39:46;12.90;99.60
43673;DHT22;41723;49.326;8.430;2023-04-24T15:42:12;12.90;99.60
43673;DHT22;41723;49.326;8.430;2023-04-24T15:44:37;12.80;99.80
43673;DHT22;41723;49.326;8.430;2023-04-24T15:47:03;12.80;99.90
43673;DHT22;41723;49.326;8.430;2023-04-24T15:49:29;12.70;99.90
43673;DHT22;41723;49.326;8.430;2023-04-24T15:51:56;12.70;99.90
43673;DHT22;41723;49.326;8.430;2023-04-24T15:54:22;12.70;99.90
43673;DHT22;41723;49.326;8.430;2023-04-24T15:56:49;12.70;99.90
43673;DHT22;41723;49.326;8.430;2023-04-24T15:59:15;12.80;99.90